createdAt,value
2019-01-13T00:01:54.646Z,100097.43
2019-01-13T00:04:22.679Z,100084.92
2019-01-13T00:06:50.793Z,100093.67
2019-01-13T00:09:18.858Z,100094.30
2019-01-13T00:11:46.835Z,100099.73
2019-01-13T00:14:14.955Z,100097.14
2019-01-13T00:16:42.960Z,100094.09
2019-01-13T00:19:11.000Z,100091.27
2019-01-13T00:21:39.008Z,100094.20
2019-01-13T00:24:07.233Z,100088.19
2019-01-13T00:26:35.241Z,100089.62
2019-01-13T00:29:03.686Z,100090.92
2019-01-13T00:31:31.755Z,100083.95
2019-01-13T00:33:59.793Z,100082.66
2019-01-13T00:36:28.870Z,100076.73
2019-01-13T00:38:57.788Z,100073.31
2019-01-13T00:41:25.800Z,100082.74
2019-01-13T00:43:53.956Z,100076.36
2019-01-13T00:46:21.938Z,100077.55
2019-01-13T00:48:50.044Z,100080.48
2019-01-13T00:51:18.206Z,100078.22
2019-01-13T00:53:46.234Z,100069.47
2019-01-13T00:56:14.222Z,100057.64
2019-01-13T00:58:42.229Z,100049.02
2019-01-13T01:01:10.522Z,100059.42
2019-01-13T01:03:38.875Z,100060.61
2019-01-13T01:06:06.872Z,100065.80
2019-01-13T01:08:35.999Z,100066.14
2019-01-13T01:11:04.062Z,100063.26
2019-01-13T01:13:32.394Z,100061.14
2019-01-13T01:16:00.776Z,100060.66
2019-01-13T01:18:28.793Z,100066.20
2019-01-13T01:20:57.476Z,100065.86
2019-01-13T01:23:25.465Z,100069.27
2019-01-13T01:25:53.465Z,100079.89
2019-01-13T01:28:21.486Z,100084.95
2019-01-13T01:30:49.807Z,100085.44
2019-01-13T01:33:25.720Z,100088.85
2019-01-13T01:35:48.228Z,100096.98
2019-01-13T01:38:16.220Z,100096.02
2019-01-13T01:40:44.276Z,100093.52
2019-01-13T01:43:12.290Z,100083.12
2019-01-13T01:45:40.306Z,100076.39
2019-01-13T01:48:08.354Z,100074.02
2019-01-13T01:50:36.422Z,100070.45
2019-01-13T01:53:04.568Z,100069.50
2019-01-13T01:55:32.679Z,100075.27
2019-01-13T01:58:00.747Z,100070.66
2019-01-13T02:00:28.750Z,100071.81
2019-01-13T02:02:57.358Z,100075.71
2019-01-13T02:05:25.379Z,100077.02
2019-01-13T02:07:53.372Z,100075.38
2019-01-13T02:10:22.448Z,100073.59
2019-01-13T02:12:51.125Z,100072.18
2019-01-13T02:15:23.480Z,100072.18
2019-01-13T02:17:51.640Z,100074.16
2019-01-13T02:20:19.835Z,100062.80
2019-01-13T02:22:47.919Z,100073.28
2019-01-13T02:25:22.326Z,100071.02
2019-01-13T02:27:50.297Z,100069.72
2019-01-13T02:30:20.203Z,100069.09
2019-01-13T02:32:48.178Z,100064.94
2019-01-13T02:35:16.149Z,100059.73
2019-01-13T02:37:44.142Z,100058.89
2019-01-13T02:40:15.396Z,100065.61
2019-01-13T02:42:43.461Z,100058.97
2019-01-13T02:45:26.641Z,100055.27
2019-01-13T02:47:54.607Z,100055.15
2019-01-13T02:50:22.613Z,100048.65
2019-01-13T02:52:50.561Z,100046.53
2019-01-13T02:55:18.538Z,100041.19
2019-01-13T02:57:47.517Z,100042.53
2019-01-13T03:00:21.586Z,100041.79
2019-01-13T03:02:49.554Z,100043.28
2019-01-13T03:05:17.785Z,100028.02
2019-01-13T03:07:46.124Z,100023.03
2019-01-13T03:10:17.430Z,100023.08
2019-01-13T03:12:45.412Z,100003.94
2019-01-13T03:15:19.377Z,100007.84
2019-01-13T03:17:47.531Z,100010.63
2019-01-13T03:20:15.491Z,100017.80
2019-01-13T03:22:43.807Z,100016.50
2019-01-13T03:25:15.394Z,100018.14
2019-01-13T03:27:43.590Z,100018.98
2019-01-13T03:30:17.179Z,100020.96
2019-01-13T03:32:45.166Z,100024.23
2019-01-13T03:35:14.816Z,100019.52
2019-01-13T03:37:42.979Z,100024.56
2019-01-13T03:40:25.527Z,100019.70
2019-01-13T03:42:54.496Z,100017.32
2019-01-13T03:45:24.263Z,100018.80
2019-01-13T03:47:52.238Z,100016.54
2019-01-13T03:50:22.539Z,100010.37
2019-01-13T03:52:53.275Z,100008.62
2019-01-13T03:55:23.305Z,100007.98
2019-01-13T03:57:51.408Z,100008.66
2019-01-13T04:00:22.434Z,100008.66
2019-01-13T04:02:50.675Z,100006.87
2019-01-13T04:05:19.004Z,100008.88
2019-01-13T04:07:47.768Z,100004.82
2019-01-13T04:10:16.730Z,99999.14
2019-01-13T04:12:45.016Z,99991.52
2019-01-13T04:16:00.769Z,99984.19
2019-01-13T04:18:28.764Z,99966.39
2019-01-13T04:20:56.769Z,99962.64
2019-01-13T04:23:24.737Z,99963.61
2019-01-13T04:25:52.781Z,99961.49
2019-01-13T04:28:20.858Z,99968.48
2019-01-13T04:30:48.894Z,99963.80
2019-01-13T04:33:16.856Z,99953.27
2019-01-13T04:35:44.891Z,99951.00
2019-01-13T04:38:12.909Z,99954.91
2019-01-13T04:40:40.916Z,99948.73
2019-01-13T04:43:08.937Z,99949.40
2019-01-13T04:45:36.870Z,99956.23
2019-01-13T04:48:04.883Z,99956.60
2019-01-13T04:50:32.869Z,99955.33
2019-01-13T04:53:00.874Z,99939.23
2019-01-13T04:55:29.982Z,99936.97
2019-01-13T04:57:57.980Z,99943.69
2019-01-13T05:00:25.996Z,99940.59
2019-01-13T05:02:54.004Z,99945.17
2019-01-13T05:05:22.000Z,99936.06
2019-01-13T05:07:50.008Z,99943.72
2019-01-13T05:10:19.457Z,99942.78
2019-01-13T05:12:47.516Z,99950.92
2019-01-13T05:15:16.256Z,99960.21
2019-01-13T05:17:44.311Z,99956.00
2019-01-13T05:20:17.290Z,99952.09
2019-01-13T05:22:45.465Z,99945.59
2019-01-13T05:25:13.813Z,99944.29
2019-01-13T05:27:41.821Z,99940.87
2019-01-13T05:30:18.807Z,99929.64
2019-01-13T05:32:47.945Z,99938.15
2019-01-13T05:35:15.990Z,99937.17
2019-01-13T05:37:44.099Z,99929.70
2019-01-13T05:40:15.747Z,99926.77
2019-01-13T05:42:43.766Z,99932.64
2019-01-13T05:45:14.759Z,99930.36
2019-01-13T05:47:42.945Z,99932.36
2019-01-13T05:50:14.041Z,99927.77
2019-01-13T05:52:43.513Z,99931.33
2019-01-13T05:55:11.991Z,99920.59
2019-01-13T05:57:39.956Z,99931.81
2019-01-13T06:00:13.622Z,99914.41
2019-01-13T06:02:41.591Z,99904.48
2019-01-13T06:05:09.589Z,99898.31
2019-01-13T06:07:37.588Z,99883.66
2019-01-13T06:10:07.906Z,99871.62
2019-01-13T06:12:35.902Z,99875.03
2019-01-13T06:15:05.596Z,99879.42
2019-01-13T06:17:33.572Z,99877.16
2019-01-13T06:20:01.573Z,99882.20
2019-01-13T06:22:29.579Z,99887.26
2019-01-13T06:24:57.552Z,99888.11
2019-01-13T06:27:25.550Z,99887.14
2019-01-13T06:29:53.518Z,99886.02
2019-01-13T06:32:21.536Z,99891.22
2019-01-13T06:34:49.540Z,99897.91
2019-01-13T06:37:17.519Z,99892.24
2019-01-13T06:39:45.494Z,99891.27
2019-01-13T06:42:13.511Z,99875.98
2019-01-13T06:44:41.514Z,99880.39
2019-01-13T06:47:11.098Z,99872.58
2019-01-13T06:49:39.179Z,99874.70
2019-01-13T06:52:07.181Z,99873.61
2019-01-13T06:54:35.170Z,99872.97
2019-01-13T06:57:03.257Z,99872.81
2019-01-13T06:59:31.262Z,99855.40
2019-01-13T07:02:03.295Z,99845.95
2019-01-13T07:04:29.152Z,99852.13
2019-01-13T07:06:57.148Z,99859.46
2019-01-13T07:09:25.120Z,99851.32
2019-01-13T07:11:53.152Z,99850.02
2019-01-13T07:14:21.138Z,99853.11
2019-01-13T07:16:49.132Z,99849.20
2019-01-13T07:19:17.135Z,99845.80
2019-01-13T07:21:45.120Z,99829.84
2019-01-13T07:24:13.116Z,99821.38
2019-01-13T07:26:41.096Z,99822.34
2019-01-13T07:29:09.090Z,99830.97
2019-01-13T07:31:38.163Z,99823.65
2019-01-13T07:34:06.132Z,99827.55
2019-01-13T07:36:34.110Z,99839.93
2019-01-13T07:39:03.962Z,99833.42
2019-01-13T07:41:31.950Z,99838.47
2019-01-13T07:43:59.964Z,99827.57
2019-01-13T07:46:27.958Z,99818.61
2019-01-13T07:48:56.417Z,99827.57
2019-01-13T07:51:24.520Z,99820.61
2019-01-13T07:53:52.529Z,99814.55
2019-01-13T07:56:20.570Z,99811.62
2019-01-13T07:58:48.546Z,99804.45
2019-01-13T08:01:16.390Z,99802.17
2019-01-13T08:03:44.487Z,99800.88
2019-01-13T08:06:12.904Z,99789.48
2019-01-13T08:08:41.201Z,99787.08
2019-01-13T08:11:10.351Z,99783.02
2019-01-13T08:13:38.360Z,99791.48
2019-01-13T08:16:08.201Z,99792.30
2019-01-13T08:18:36.425Z,99787.30
2019-01-13T08:21:04.419Z,99788.93
2019-01-13T08:23:32.473Z,99783.41
2019-01-13T08:26:00.501Z,99781.48
2019-01-13T08:28:28.552Z,99786.05
2019-01-13T08:30:56.496Z,99780.69
2019-01-13T08:33:24.989Z,99779.55
2019-01-13T08:35:53.488Z,99787.23
2019-01-13T08:38:21.499Z,99777.30
2019-01-13T08:40:49.460Z,99766.06
2019-01-13T08:43:17.253Z,99758.25
2019-01-13T08:45:50.238Z,99746.53
2019-01-13T08:48:15.444Z,99749.95
2019-01-13T08:50:43.417Z,99743.44
2019-01-13T08:53:11.450Z,99748.00
2019-01-13T08:55:39.479Z,99750.94
2019-01-13T08:58:07.460Z,99734.49
2019-01-13T09:00:35.430Z,99730.74
2019-01-13T09:03:06.503Z,99729.77
2019-01-13T09:05:34.549Z,99724.40
2019-01-13T09:08:03.480Z,99720.66
2019-01-13T09:10:31.802Z,99723.09
2019-01-13T09:12:59.799Z,99724.44
2019-01-13T09:15:27.915Z,99724.27
2019-01-13T09:17:56.017Z,99719.87
2019-01-13T09:20:27.137Z,99730.47
2019-01-13T09:22:57.975Z,99733.39
2019-01-13T09:25:28.357Z,99743.33
2019-01-13T09:27:56.446Z,99750.81
2019-01-13T09:30:26.964Z,99751.14
2019-01-13T09:32:54.933Z,99754.39
2019-01-13T09:35:23.693Z,99755.37
2019-01-13T09:37:53.066Z,99758.46
2019-01-13T09:40:31.004Z,99761.36
2019-01-13T09:43:01.909Z,99766.56
2019-01-13T09:45:30.011Z,99769.81
2019-01-13T09:47:58.048Z,99770.30
2019-01-13T09:50:26.374Z,99778.61
2019-01-13T09:52:54.354Z,99779.09
2019-01-13T09:55:24.257Z,99784.59
2019-01-13T09:57:52.858Z,99786.70
2019-01-13T10:00:30.178Z,99783.12
2019-01-13T10:02:58.263Z,99787.20
2019-01-13T10:05:26.391Z,99784.92
2019-01-13T10:07:54.341Z,99783.62
2019-01-13T10:10:22.340Z,99777.59
2019-01-13T10:12:50.489Z,99772.05
2019-01-13T10:15:20.268Z,99758.22
2019-01-13T10:17:48.380Z,99752.52
2019-01-13T10:20:16.516Z,99752.52
2019-01-13T10:22:44.619Z,99743.73
2019-01-13T10:25:13.076Z,99736.41
2019-01-13T10:27:42.146Z,99730.70
2019-01-13T10:30:14.979Z,99720.77
2019-01-13T10:32:44.032Z,99702.38
2019-01-13T10:35:12.352Z,99699.28
2019-01-13T10:37:40.531Z,99702.05
2019-01-13T10:40:12.996Z,99699.29
2019-01-13T10:42:41.045Z,99698.80
2019-01-13T10:45:10.369Z,99696.87
2019-01-13T10:47:38.445Z,99690.05
2019-01-13T10:50:10.632Z,99692.48
2019-01-13T10:52:38.614Z,99686.66
2019-01-13T10:55:06.939Z,99673.96
2019-01-13T10:57:34.956Z,99676.59
2019-01-13T11:00:07.621Z,99673.99
2019-01-13T11:02:35.603Z,99673.83
2019-01-13T11:05:04.379Z,99675.33
2019-01-13T11:07:33.441Z,99668.81
2019-01-13T11:10:04.327Z,99665.56
2019-01-13T11:12:32.404Z,99653.05
2019-01-13T11:15:00.820Z,99652.39
2019-01-13T11:17:28.861Z,99651.42
2019-01-13T11:19:56.891Z,99638.39
2019-01-13T11:22:24.916Z,99634.34
2019-01-13T11:24:53.592Z,99629.95
2019-01-13T11:27:22.026Z,99627.99
2019-01-13T11:29:50.099Z,99615.28
2019-01-13T11:32:21.216Z,99615.61
2019-01-13T11:34:49.353Z,99613.19
2019-01-13T11:37:17.362Z,99613.35
2019-01-13T11:39:45.433Z,99601.32
2019-01-13T11:42:13.698Z,99588.61
2019-01-13T11:44:42.035Z,99589.42
2019-01-13T11:47:16.239Z,99590.23
2019-01-13T11:49:45.065Z,99579.67
2019-01-13T11:52:13.524Z,99578.03
2019-01-13T11:54:41.699Z,99570.05
2019-01-13T11:57:09.759Z,99571.53
2019-01-13T11:59:37.941Z,99574.30
2019-01-13T12:02:06.359Z,99576.59
2019-01-13T12:04:34.447Z,99575.45
2019-01-13T12:07:02.406Z,99560.28
2019-01-13T12:09:30.607Z,99552.32
2019-01-13T12:12:07.572Z,99552.47
2019-01-13T12:14:35.747Z,99550.38
2019-01-13T12:17:03.740Z,99540.27
2019-01-13T12:19:31.814Z,99542.70
2019-01-13T12:22:00.043Z,99532.91
2019-01-13T12:24:37.233Z,99529.17
2019-01-13T12:27:05.492Z,99530.31
2019-01-13T12:29:33.891Z,99511.39
2019-01-13T12:32:01.900Z,99502.91
2019-01-13T12:34:30.326Z,99501.46
2019-01-13T12:36:58.300Z,99512.05
2019-01-13T12:39:26.636Z,99512.55
2019-01-13T12:42:01.231Z,99499.64
2019-01-13T12:44:30.853Z,99492.63
2019-01-13T12:47:00.091Z,99481.70
2019-01-13T12:49:28.389Z,99469.80
2019-01-13T12:51:56.570Z,99468.34
2019-01-13T12:54:24.862Z,99477.80
2019-01-13T12:56:52.831Z,99482.35
2019-01-13T12:59:21.005Z,99473.86
2019-01-13T13:01:49.094Z,99482.36
2019-01-13T13:04:30.436Z,99483.31
2019-01-13T13:07:08.212Z,99484.77
2019-01-13T13:09:36.378Z,99474.82
2019-01-13T13:12:04.546Z,99466.50
2019-01-13T13:14:32.536Z,99469.74
2019-01-13T13:17:00.748Z,99473.17
2019-01-13T13:19:28.918Z,99473.17
2019-01-13T13:21:57.355Z,99449.33
2019-01-13T13:24:25.436Z,99435.33
2019-01-13T13:26:53.557Z,99452.43
2019-01-13T13:29:22.037Z,99458.95
2019-01-13T13:31:50.194Z,99456.98
2019-01-13T13:34:26.667Z,99460.72
2019-01-13T13:36:54.814Z,99458.60
2019-01-13T13:39:31.671Z,99441.95
2019-01-13T13:41:59.793Z,99455.95
2019-01-13T13:44:27.778Z,99469.18
2019-01-13T13:46:55.959Z,99465.90
2019-01-13T13:49:24.015Z,99469.64
2019-01-13T13:51:55.249Z,99465.05
2019-01-13T13:54:23.338Z,99461.13
2019-01-13T13:56:51.735Z,99460.77
2019-01-13T13:59:19.885Z,99458.02
2019-01-13T14:01:47.897Z,99460.95
2019-01-13T14:04:15.934Z,99457.03
2019-01-13T14:06:43.962Z,99466.98
2019-01-13T14:09:20.383Z,99472.20
2019-01-13T14:11:48.745Z,99471.53
2019-01-13T14:14:16.970Z,99470.89
2019-01-13T14:16:44.997Z,99467.94
2019-01-13T14:19:13.098Z,99466.13
2019-01-13T14:21:41.217Z,99454.55
2019-01-13T14:24:09.315Z,99440.68
2019-01-13T14:26:37.570Z,99437.90
2019-01-13T14:29:05.510Z,99425.66
2019-01-13T14:31:33.529Z,99422.08
2019-01-13T14:34:01.597Z,99426.00
2019-01-13T14:36:29.617Z,99424.20
2019-01-13T14:38:57.642Z,99428.11
2019-01-13T14:41:25.747Z,99440.68
2019-01-13T14:43:54.355Z,99433.48
2019-01-13T14:46:22.414Z,99412.41
2019-01-13T14:48:50.774Z,99396.58
2019-01-13T14:51:18.890Z,99377.63
2019-01-13T14:53:46.734Z,99378.63
2019-01-13T14:56:14.983Z,99380.30
2019-01-13T14:58:42.943Z,99379.62
2019-01-13T15:01:10.960Z,99376.83
2019-01-13T15:03:38.826Z,99367.86
2019-01-13T15:06:06.895Z,99359.40
2019-01-13T15:08:34.960Z,99356.80
2019-01-13T15:11:03.127Z,99357.48
2019-01-13T15:13:32.486Z,99354.20
2019-01-13T15:16:01.076Z,99353.70
2019-01-13T15:18:29.383Z,99344.25
2019-01-13T15:20:57.406Z,99339.21
2019-01-13T15:23:25.635Z,99337.41
2019-01-13T15:26:01.652Z,99338.09
2019-01-13T15:28:29.697Z,99327.82
2019-01-13T15:30:57.978Z,99333.05
2019-01-13T15:33:26.467Z,99336.30
2019-01-13T15:35:55.064Z,99328.78
2019-01-13T15:38:23.189Z,99327.66
2019-01-13T15:40:51.503Z,99312.98
2019-01-13T15:43:24.034Z,99309.24
2019-01-13T15:45:54.418Z,99304.70
2019-01-13T15:48:22.507Z,99297.49
2019-01-13T15:50:50.544Z,99300.91
2019-01-13T15:53:18.890Z,99295.20
2019-01-13T15:55:54.248Z,99287.68
2019-01-13T15:58:22.185Z,99280.66
2019-01-13T16:00:50.393Z,99280.47
2019-01-13T16:03:18.530Z,99281.78
2019-01-13T16:05:46.796Z,99263.67
2019-01-13T16:08:14.968Z,99254.84
2019-01-13T16:10:43.405Z,99241.91
2019-01-13T16:34:29.509Z,99225.02
2019-01-13T16:36:58.037Z,99235.19
2019-01-13T16:39:26.323Z,99227.66
2019-01-13T16:41:55.752Z,99219.17
2019-01-13T16:44:23.985Z,99207.73
2019-01-13T16:46:52.077Z,99206.56
2019-01-13T16:49:20.159Z,99198.72
2019-01-13T16:51:48.168Z,99196.30
2019-01-13T16:54:16.406Z,99196.30
2019-01-13T16:57:05.307Z,99201.02
2019-01-13T16:59:33.516Z,99197.60
2019-01-13T17:02:01.513Z,99198.41
2019-01-13T17:04:29.727Z,99194.19
2019-01-13T17:06:57.743Z,99193.69
2019-01-13T17:09:25.937Z,99186.97
2019-01-13T17:11:55.411Z,99185.02
2019-01-13T17:14:23.502Z,99177.17
2019-01-13T17:16:51.516Z,99179.45
2019-01-13T17:19:19.896Z,99175.88
2019-01-13T17:21:48.102Z,99171.61
2019-01-13T17:24:16.173Z,99169.66
2019-01-13T17:27:01.351Z,99165.73
2019-01-13T17:29:30.864Z,99171.77
2019-01-13T17:31:59.179Z,99167.36
2019-01-13T17:34:27.284Z,99158.89
2019-01-13T17:36:55.300Z,99162.63
2019-01-13T17:39:23.532Z,99153.98
2019-01-13T17:41:51.790Z,99142.38
2019-01-13T17:44:20.026Z,99145.00
2019-01-13T17:46:48.374Z,99149.56
2019-01-13T17:49:16.715Z,99143.04
2019-01-13T17:51:45.155Z,99147.27
2019-01-13T17:54:13.157Z,99140.73
2019-01-13T17:56:41.538Z,99141.36
2019-01-13T17:59:15.300Z,99133.03
2019-01-13T18:01:49.097Z,99137.59
2019-01-13T18:04:17.254Z,99137.26
2019-01-13T18:06:45.348Z,99123.58
2019-01-13T18:09:13.502Z,99133.21
2019-01-13T18:11:41.705Z,99134.33
2019-01-13T18:14:09.971Z,99139.37
2019-01-13T18:16:38.435Z,99129.77
2019-01-13T18:19:06.792Z,99120.74
2019-01-13T18:21:35.130Z,99116.83
2019-01-13T18:24:03.229Z,99114.03
2019-01-13T18:26:31.273Z,99112.38
2019-01-13T18:29:09.586Z,99110.57
2019-01-13T18:31:37.775Z,99103.05
2019-01-13T18:34:05.976Z,99107.95
2019-01-13T18:36:34.397Z,99126.37
2019-01-13T18:39:06.090Z,99126.37
2019-01-13T18:41:34.539Z,99124.37
2019-01-13T18:44:02.911Z,99134.02
2019-01-13T18:46:31.002Z,99139.09
2019-01-13T18:49:08.208Z,99133.67
2019-01-13T18:51:36.368Z,99130.75
2019-01-13T18:54:04.823Z,99122.11
2019-01-13T18:56:39.495Z,99120.80
2019-01-13T18:59:09.238Z,99120.80
2019-01-13T19:01:39.149Z,99115.23
2019-01-13T19:04:07.293Z,99116.23
2019-01-13T19:06:35.483Z,99122.58
2019-01-13T19:09:09.165Z,99121.11
2019-01-13T19:11:42.858Z,99128.45
2019-01-13T19:14:57.800Z,99130.06
2019-01-13T19:17:27.036Z,99126.58
2019-01-13T19:25:46.611Z,99132.73
2019-01-13T19:28:15.181Z,99123.77
2019-01-13T19:30:43.439Z,99130.12
2019-01-13T19:33:12.307Z,99135.00
2019-01-13T19:35:40.406Z,99126.47
2019-01-13T19:38:08.511Z,99111.09
2019-01-13T19:40:36.975Z,99114.05
2019-01-13T19:43:18.137Z,99118.59
2019-01-13T19:45:46.472Z,99114.30
2019-01-13T19:48:14.978Z,99086.84
2019-01-13T19:50:43.063Z,99067.55
2019-01-13T19:53:11.332Z,99063.17
2019-01-13T19:55:39.446Z,99068.86
2019-01-13T19:58:07.570Z,99061.67
2019-01-13T20:00:36.650Z,99042.18
2019-01-13T20:03:06.218Z,99039.56
2019-01-13T20:05:34.581Z,99031.23
2019-01-13T20:08:03.661Z,99036.27
2019-01-13T20:10:32.341Z,99030.53
2019-01-13T20:13:00.388Z,99022.03
2019-01-13T20:15:28.704Z,99017.30
2019-01-13T20:18:11.126Z,99027.56
2019-01-13T20:20:39.229Z,99025.14
2019-01-13T20:23:07.257Z,99009.63
2019-01-13T20:25:35.371Z,99022.03
2019-01-13T20:28:03.541Z,99024.45
2019-01-13T20:30:33.102Z,99007.77
2019-01-13T20:33:02.480Z,98999.42
2019-01-13T20:35:30.561Z,98979.31
2019-01-13T20:37:59.562Z,98984.55
2019-01-13T20:40:29.077Z,98998.62
2019-01-13T20:42:57.096Z,99009.87
2019-01-13T20:45:35.129Z,99022.45
2019-01-13T20:48:03.226Z,99032.05
2019-01-13T20:50:31.465Z,99041.82
2019-01-13T20:52:59.644Z,99046.20
2019-01-13T20:55:27.727Z,99047.92
2019-01-13T20:57:55.855Z,99036.47
2019-01-13T21:00:25.593Z,99031.19
2019-01-13T21:02:53.989Z,99033.41
2019-01-13T21:05:26.630Z,99027.83
2019-01-13T21:07:52.336Z,99035.78
2019-01-13T21:10:20.497Z,99032.12
2019-01-13T21:12:48.617Z,99022.57
2019-01-13T21:15:21.151Z,99024.02
2019-01-13T21:17:49.204Z,99021.02
2019-01-13T21:20:17.661Z,99031.42
2019-01-13T21:22:45.690Z,99032.34
2019-01-13T21:25:14.583Z,99032.98
2019-01-13T21:27:43.017Z,99033.59
2019-01-13T21:30:16.531Z,99038.94
2019-01-13T21:32:44.596Z,99043.67
2019-01-13T21:35:13.670Z,99040.89
2019-01-13T21:37:41.721Z,99043.31
2019-01-13T21:40:10.470Z,99054.39
2019-01-13T21:42:38.488Z,99065.47
2019-01-13T21:45:09.705Z,99068.73
2019-01-13T21:47:38.817Z,99064.97
2019-01-13T21:50:10.292Z,99077.89
2019-01-13T21:52:38.417Z,99087.35
2019-01-13T21:55:08.104Z,99080.50
2019-01-13T21:57:36.138Z,99079.80
2019-01-13T22:00:15.923Z,99057.56
2019-01-13T22:02:44.041Z,99061.09
2019-01-13T22:05:12.297Z,99058.01
2019-01-13T22:07:40.299Z,99062.23
2019-01-13T22:10:12.649Z,99065.16
2019-01-13T22:12:40.669Z,99061.23
2019-01-13T22:15:11.111Z,99054.19
2019-01-13T22:17:39.131Z,99055.19
2019-01-13T22:20:10.750Z,99049.96
2019-01-13T22:22:39.105Z,99045.73
2019-01-13T22:25:07.606Z,99029.08
2019-01-13T22:27:36.772Z,99035.31
2019-01-13T22:30:08.870Z,99037.33
2019-01-13T22:32:37.286Z,99036.02
2019-01-13T22:35:05.324Z,99037.83
2019-01-13T22:37:33.337Z,99030.14
2019-01-13T22:40:01.396Z,99043.56
2019-01-13T22:42:29.450Z,99040.61
2019-01-13T22:44:57.476Z,99035.06
2019-01-13T22:47:25.534Z,99036.57
2019-01-13T22:49:53.580Z,99046.54
2019-01-13T22:52:21.632Z,99033.66
2019-01-13T22:54:49.618Z,99047.23
2019-01-13T22:57:17.682Z,99046.93
2019-01-13T22:59:45.707Z,99047.59
2019-01-13T23:02:13.764Z,99038.52
2019-01-13T23:04:41.811Z,99025.19
2019-01-13T23:07:09.844Z,99028.20
2019-01-13T23:09:37.872Z,99023.13
2019-01-13T23:12:06.244Z,99032.67
2019-01-13T23:14:34.278Z,99038.60
2019-01-13T23:17:02.303Z,99043.19
2019-01-13T23:19:30.332Z,99019.23
2019-01-13T23:21:59.513Z,99007.02
2019-01-13T23:24:27.626Z,99012.33
2019-01-13T23:26:55.719Z,99014.50
2019-01-13T23:29:23.812Z,99013.73
2019-01-13T23:31:51.888Z,99007.39
2019-01-13T23:34:20.192Z,99006.17
2019-01-13T23:36:48.224Z,98998.38
2019-01-13T23:39:16.269Z,99012.80
2019-01-13T23:41:44.298Z,99006.66
2019-01-13T23:44:12.316Z,99009.77
2019-01-13T23:46:40.349Z,99006.03
2019-01-13T23:49:08.862Z,99007.01
2019-01-13T23:51:36.955Z,99003.09
2019-01-13T23:54:05.036Z,99014.55
2019-01-13T23:56:33.077Z,99015.05
2019-01-13T23:59:01.146Z,99012.63
